createdAt,value
2023-04-16T00:04:08.863Z,1.40
2023-04-16T00:09:12.593Z,2.10
2023-04-16T00:14:16.297Z,1.10
2023-04-16T00:19:19.605Z,1.40
2023-04-16T00:24:23.125Z,0.90
2023-04-16T00:29:28.989Z,1.30
2023-04-16T00:34:32.510Z,1.10
2023-04-16T00:39:36.327Z,1.00
2023-04-16T00:44:39.648Z,1.60
2023-04-16T00:49:43.367Z,0.80
2023-04-16T00:54:47.498Z,1.30
2023-04-16T00:59:51.824Z,1.20
2023-04-16T01:09:59.064Z,1.30
2023-04-16T01:15:03.713Z,1.10
2023-04-16T01:20:07.635Z,1.00
2023-04-16T01:25:16.041Z,0.90
2023-04-16T01:30:19.794Z,1.10
2023-04-16T01:35:23.196Z,0.90
2023-04-16T01:40:26.618Z,0.80
2023-04-16T01:45:32.494Z,1.10
2023-04-16T01:50:36.304Z,1.30
2023-04-16T01:55:39.722Z,1.20
2023-04-16T02:00:43.294Z,1.10
2023-04-16T02:05:47.671Z,0.90
2023-04-16T02:15:54.821Z,0.80
2023-04-16T02:21:02.617Z,1.10
2023-04-16T02:26:06.229Z,1.20
2023-04-16T02:31:09.951Z,1.10
2023-04-16T02:36:13.364Z,1.10
2023-04-16T02:41:16.774Z,0.70
2023-04-16T02:46:20.347Z,0.80
2023-04-16T02:51:23.808Z,0.90
2023-04-16T02:56:27.323Z,0.90
2023-04-16T03:01:31.011Z,0.80
2023-04-16T03:06:34.458Z,0.80
2023-04-16T03:11:37.875Z,0.80
2023-04-16T03:16:41.798Z,0.70
2023-04-16T03:21:45.621Z,0.50
2023-04-16T03:26:49.136Z,0.60
2023-04-16T03:31:52.760Z,0.50
2023-04-16T03:36:56.170Z,0.40
2023-04-16T03:41:59.785Z,0.50
2023-04-16T03:47:03.301Z,0.50
2023-04-16T03:52:06.722Z,0.60
2023-04-16T03:57:10.230Z,0.60
2023-04-16T04:02:13.820Z,0.40
2023-04-16T04:07:17.468Z,0.80
2023-04-16T04:12:20.981Z,0.40
2023-04-16T04:17:24.413Z,0.40
2023-04-16T04:22:27.917Z,1.00
2023-04-16T04:27:31.330Z,1.70
2023-04-16T04:32:35.019Z,1.10
2023-04-16T04:37:38.665Z,1.20
2023-04-16T04:42:42.279Z,1.00
2023-04-16T04:47:45.821Z,1.00
2023-04-16T04:52:49.313Z,1.30
2023-04-16T04:57:52.823Z,1.20
2023-04-16T05:02:56.298Z,1.10
2023-04-16T05:07:59.962Z,0.70
2023-04-16T05:13:03.866Z,0.80
2023-04-16T05:18:07.204Z,1.20
2023-04-16T05:23:10.715Z,0.50
2023-04-16T05:28:14.225Z,0.80
2023-04-16T05:33:17.763Z,0.60
2023-04-16T05:38:21.366Z,0.60
2023-04-16T05:43:25.084Z,0.90
2023-04-16T05:48:28.496Z,0.40
2023-04-16T05:53:32.015Z,0.60
2023-04-16T05:59:11.823Z,0.50
2023-04-16T06:04:16.058Z,0.50
2023-04-16T06:09:23.012Z,0.60
2023-04-16T06:14:40.296Z,0.50
2023-04-16T06:24:49.244Z,0.90
2023-04-16T06:29:52.571Z,0.70
2023-04-16T06:34:56.765Z,0.80
2023-04-16T06:40:00.276Z,1.00
2023-04-16T06:45:04.612Z,1.00
2023-04-16T07:04:12.661Z,1.00
2023-04-16T07:09:18.498Z,1.40
2023-04-16T07:14:22.235Z,1.60
2023-04-16T07:19:26.247Z,1.50
2023-04-16T07:24:30.930Z,1.20
2023-04-16T07:29:34.406Z,0.70
2023-04-16T07:34:38.899Z,1.00
2023-04-16T07:39:51.009Z,0.90
2023-04-16T07:50:00.628Z,7.00
2023-04-16T07:55:04.575Z,1.10
2023-04-16T08:00:09.349Z,0.70
2023-04-16T08:05:13.655Z,0.90
2023-04-16T08:10:21.137Z,0.50
2023-04-16T08:15:25.717Z,0.40
2023-04-16T08:20:29.429Z,0.60
2023-04-16T08:25:32.943Z,0.80
2023-04-16T08:30:36.558Z,0.60
2023-04-16T08:35:40.180Z,0.50
2023-04-16T08:40:45.091Z,0.70
2023-04-16T08:45:49.265Z,0.60
2023-04-16T08:50:55.325Z,0.50
2023-04-16T08:56:03.963Z,0.70
2023-04-16T09:01:11.192Z,0.90
2023-04-16T09:06:16.272Z,1.90
2023-04-16T09:11:20.757Z,1.80
2023-04-16T09:16:25.423Z,1.50
2023-04-16T09:21:28.830Z,1.90
2023-04-16T09:26:33.151Z,1.80
2023-04-16T09:36:40.286Z,1.40
2023-04-16T09:41:44.002Z,1.20
2023-04-16T09:46:47.626Z,1.20
2023-04-16T09:51:54.828Z,1.10
2023-04-16T09:57:01.310Z,1.00
2023-04-16T10:02:15.670Z,1.30
2023-04-16T10:07:20.856Z,1.20
2023-04-16T10:12:24.153Z,1.50
2023-04-16T10:17:30.318Z,1.10
2023-04-16T10:22:34.254Z,1.10
2023-04-16T10:27:38.431Z,0.90
2023-04-16T10:32:42.752Z,0.80
2023-04-16T10:37:47.746Z,1.40
2023-04-16T10:42:56.094Z,1.20
2023-04-16T10:47:59.559Z,1.20
2023-04-16T10:53:25.983Z,0.90
2023-04-16T10:58:36.138Z,1.40
2023-04-16T11:03:49.537Z,1.40
2023-04-16T11:08:55.278Z,1.40
2023-04-16T11:13:59.274Z,2.60
2023-04-16T11:19:02.694Z,2.60
2023-04-16T11:24:06.509Z,3.00
2023-04-16T11:29:16.282Z,2.60
2023-04-16T11:34:20.607Z,2.60
2023-04-16T11:39:24.127Z,1.80
2023-04-16T11:44:28.516Z,1.40
2023-04-16T11:49:32.071Z,2.40
2023-04-16T11:54:37.225Z,2.40
2023-04-16T12:00:02.165Z,2.70
2023-04-16T12:05:39.326Z,3.30
2023-04-16T12:10:55.774Z,2.60
2023-04-16T12:15:59.178Z,2.50
2023-04-16T12:21:05.977Z,2.50
2023-04-16T12:26:14.623Z,2.10
2023-04-16T12:31:17.981Z,3.80
2023-04-16T12:36:22.253Z,2.90
2023-04-16T12:41:25.883Z,2.80
2023-04-16T12:46:29.338Z,2.60
2023-04-16T12:51:34.135Z,2.60
2023-04-16T12:56:37.444Z,2.60
2023-04-16T13:01:41.012Z,2.40
2023-04-16T13:06:45.751Z,2.90
2023-04-16T13:11:49.122Z,3.00
2023-04-16T13:16:52.633Z,2.60
2023-04-16T13:21:56.250Z,2.60
2023-04-16T13:26:59.973Z,4.30
2023-04-16T13:32:05.066Z,2.70
2023-04-16T13:37:08.437Z,2.10
2023-04-16T13:42:11.846Z,3.00
2023-04-16T13:47:15.367Z,2.80
2023-04-16T13:52:18.878Z,2.90
2023-04-16T13:57:23.004Z,2.80
2023-04-16T14:02:26.920Z,3.30
2023-04-16T14:12:34.371Z,2.00
2023-04-16T14:17:37.985Z,2.60
2023-04-16T14:22:42.798Z,2.90
2023-04-16T14:27:46.458Z,2.20
2023-04-16T14:32:49.782Z,2.30
2023-04-16T14:37:53.497Z,3.10
2023-04-16T14:42:56.903Z,2.30
2023-04-16T14:48:00.498Z,1.60
2023-04-16T14:53:05.165Z,1.90
2023-04-16T14:58:08.615Z,2.00
2023-04-16T15:03:12.274Z,4.90
2023-04-16T15:08:16.631Z,3.00
2023-04-16T15:18:24.381Z,2.60
2023-04-16T15:23:27.996Z,3.70
2023-04-16T15:28:31.826Z,4.10
2023-04-16T15:33:35.444Z,5.30
2023-04-16T15:38:38.953Z,5.10
2023-04-16T15:43:42.366Z,3.00
2023-04-16T15:48:45.983Z,3.10
2023-04-16T15:53:50.827Z,3.30
2023-04-16T15:58:54.243Z,5.00
2023-04-16T16:03:57.843Z,3.70
2023-04-16T16:09:02.005Z,3.80
2023-04-16T16:14:05.613Z,3.50
2023-04-16T16:19:09.444Z,4.10
2023-04-16T16:24:14.174Z,4.60
2023-04-16T16:29:17.490Z,4.20
2023-04-16T16:34:21.558Z,4.80
2023-04-16T16:39:25.689Z,3.00
2023-04-16T16:44:29.158Z,3.50
2023-04-16T16:49:32.573Z,4.30
2023-04-16T16:54:36.027Z,3.90
2023-04-16T16:59:39.602Z,3.50
2023-04-16T17:04:43.117Z,5.70
2023-04-16T17:09:46.669Z,5.10
2023-04-16T17:14:51.399Z,4.90
2023-04-16T17:19:54.752Z,4.20
2023-04-16T17:24:58.027Z,3.40
2023-04-16T17:30:02.955Z,5.10
2023-04-16T17:35:07.187Z,6.00
2023-04-16T17:40:12.854Z,4.50
2023-04-16T17:45:16.574Z,3.80
2023-04-16T17:50:20.034Z,4.00
2023-04-16T17:55:23.912Z,3.70
2023-04-16T18:00:27.521Z,4.60
2023-04-16T18:05:31.076Z,5.70
2023-04-16T18:10:34.662Z,4.40
2023-04-16T18:15:38.758Z,3.40
2023-04-16T18:20:42.510Z,3.90
2023-04-16T18:25:48.815Z,4.70
2023-04-16T18:30:52.957Z,5.10
2023-04-16T18:35:56.335Z,4.10
2023-04-16T18:41:00.137Z,4.60
2023-04-16T18:46:03.720Z,5.40
2023-04-16T18:51:08.004Z,3.70
2023-04-16T19:01:16.928Z,4.40
2023-04-16T19:06:20.599Z,4.60
2023-04-16T19:11:24.730Z,4.80
2023-04-16T19:16:28.284Z,4.00
2023-04-16T19:21:32.890Z,5.10
2023-04-16T19:31:40.044Z,5.00
2023-04-16T19:36:45.538Z,4.40
2023-04-16T19:41:48.905Z,5.20
2023-04-16T19:46:52.525Z,4.90
2023-04-16T19:51:56.030Z,4.90
2023-04-16T19:56:59.957Z,4.80
2023-04-16T20:02:03.758Z,5.40
2023-04-16T20:07:07.249Z,5.40
2023-04-16T20:12:11.159Z,5.00
2023-04-16T20:17:19.805Z,5.40
2023-04-16T20:22:23.265Z,7.20
2023-04-16T20:27:26.727Z,5.70
2023-04-16T20:32:30.412Z,5.50
2023-04-16T20:37:38.610Z,5.20
2023-04-16T20:42:46.492Z,6.00
2023-04-16T20:47:51.219Z,6.20
2023-04-16T20:52:54.656Z,5.40
2023-04-16T20:57:58.217Z,5.10
2023-04-16T21:03:01.931Z,5.50
2023-04-16T21:08:06.067Z,6.70
2023-04-16T21:13:11.226Z,5.80
2023-04-16T21:18:14.743Z,6.00
2023-04-16T21:23:18.151Z,5.70
2023-04-16T21:28:21.675Z,5.90
2023-04-16T21:33:25.187Z,5.80
2023-04-16T21:38:28.703Z,5.20
2023-04-16T21:43:32.827Z,5.30
2023-04-16T21:48:36.149Z,6.30
2023-04-16T21:53:39.669Z,6.50
2023-04-16T21:58:43.171Z,7.50
2023-04-16T22:09:25.083Z,7.10
2023-04-16T22:14:29.763Z,6.70
2023-04-16T22:19:35.125Z,6.50
2023-04-16T22:24:38.572Z,6.50
2023-04-16T22:29:42.052Z,6.80
2023-04-16T22:34:45.565Z,7.30
2023-04-16T22:39:49.085Z,6.60
2023-04-16T22:44:52.595Z,5.70
2023-04-16T22:49:56.010Z,7.00
2023-04-16T22:54:59.597Z,6.20
2023-04-16T23:00:06.385Z,6.50
2023-04-16T23:05:12.130Z,7.80
2023-04-16T23:10:15.805Z,6.40
2023-04-16T23:15:19.521Z,5.90
2023-04-16T23:20:22.836Z,5.70
2023-04-16T23:25:26.252Z,6.20
2023-04-16T23:30:29.767Z,6.00
2023-04-16T23:35:33.309Z,6.40
2023-04-16T23:40:36.690Z,6.30
2023-04-16T23:45:40.153Z,4.70
2023-04-16T23:50:43.621Z,6.20
2023-04-16T23:55:47.031Z,4.60
